Prairie City, Illinois
Current Conditions -  °F | °C
As of 2:35 PM on Thursday 27 Nov 2014 (Local Time) from KMQB Reporting Station
Clear Clear  
Wind Chill:   Ceiling: Unl
Heat Index: 19°   Visibility: 10mi
Dew Point: 11°   Wind: 10mph
Humidity: 70%   Direction: 310°NW
Pressure: 30.48"   Gusts: NA
Location:  40.62°N, 90.46°W
Report Text: KMQB 272035Z AUTO 31009KT 10SM CLR M07/M12 A3048 RMK AO2 T10711118
Loading
Personal Weather Stations






























Interactive Weather Map New forecast layout! Learn more

10-Day Weather Forecast

Advertisements
Track Severe Weather on mobile